createdAt,value
2023-07-23T00:01:11.391Z,6.90
2023-07-23T00:03:39.032Z,6.85
2023-07-23T00:06:06.899Z,7.00
2023-07-23T00:08:34.809Z,7.05
2023-07-23T00:11:02.428Z,9.85
2023-07-23T00:13:32.232Z,12.20
2023-07-23T00:16:01.979Z,12.82
2023-07-23T00:18:29.951Z,13.15
2023-07-23T00:21:04.192Z,11.93
2023-07-23T00:23:32.002Z,10.73
2023-07-23T00:25:59.763Z,9.63
2023-07-23T00:28:27.740Z,8.50
2023-07-23T00:31:00.880Z,7.93
2023-07-23T00:33:34.862Z,7.57
2023-07-23T00:36:02.638Z,7.32
2023-07-23T00:38:31.148Z,7.72
2023-07-23T00:40:59.742Z,7.38
2023-07-23T00:43:27.209Z,7.20
2023-07-23T00:45:54.767Z,6.80
2023-07-23T00:48:22.290Z,7.88
2023-07-23T00:50:53.164Z,7.85
2023-07-23T00:53:22.004Z,8.35
2023-07-23T00:55:50.079Z,8.23
2023-07-23T00:58:18.346Z,9.27
2023-07-23T01:00:46.079Z,9.35
2023-07-23T01:03:14.350Z,9.27
2023-07-23T01:05:45.247Z,9.65
2023-07-23T01:08:14.458Z,9.98
2023-07-23T01:10:42.120Z,10.27
2023-07-23T01:13:18.282Z,10.50
2023-07-23T01:18:53.849Z,10.55
2023-07-23T01:22:00.400Z,9.82
2023-07-23T01:24:28.308Z,10.03
2023-07-23T01:26:57.490Z,9.68
2023-07-23T01:29:32.326Z,10.45
2023-07-23T01:32:00.269Z,10.40
2023-07-23T01:34:35.568Z,10.20
2023-07-23T01:37:12.067Z,9.52
2023-07-23T01:39:39.864Z,9.40
2023-07-23T01:42:16.164Z,8.75
2023-07-23T01:44:51.397Z,8.90
2023-07-23T01:47:24.147Z,8.73
2023-07-23T01:49:52.748Z,8.68
2023-07-23T01:52:53.061Z,8.07
2023-07-23T01:55:53.993Z,7.18
2023-07-23T01:58:25.236Z,7.30
2023-07-23T02:01:01.896Z,7.35
2023-07-23T02:04:04.525Z,7.13
2023-07-23T02:07:05.152Z,7.47
2023-07-23T02:09:34.370Z,7.07
2023-07-23T02:12:11.267Z,6.90
2023-07-23T02:14:42.190Z,7.40
2023-07-23T02:17:09.906Z,9.95
2023-07-23T02:19:43.347Z,7.40
2023-07-23T02:22:49.883Z,8.77
2023-07-23T02:25:59.874Z,7.80
2023-07-23T02:28:34.726Z,16.25
2023-07-23T02:31:10.418Z,8.85
2023-07-23T02:34:12.760Z,7.20
2023-07-23T02:36:41.664Z,7.88
2023-07-23T02:39:48.870Z,7.88
2023-07-23T02:42:16.833Z,7.55
2023-07-23T02:44:46.642Z,8.48
2023-07-23T02:47:16.332Z,7.18
2023-07-23T02:49:47.216Z,6.80
2023-07-23T02:52:17.322Z,6.70
2023-07-23T02:54:45.182Z,6.75
2023-07-23T02:57:12.803Z,7.15
2023-07-23T02:59:40.697Z,6.57
2023-07-23T03:02:09.519Z,5.75
2023-07-23T03:04:48.274Z,7.10
2023-07-23T03:07:17.341Z,5.97
2023-07-23T03:09:47.850Z,5.85
2023-07-23T03:12:16.224Z,5.55
2023-07-23T03:14:45.385Z,5.93
2023-07-23T03:17:13.099Z,5.93
2023-07-23T03:19:41.022Z,5.88
2023-07-23T03:22:11.288Z,5.63
2023-07-23T03:24:40.810Z,5.93
2023-07-23T03:27:42.031Z,5.43
2023-07-23T03:30:11.114Z,5.80
2023-07-23T03:32:39.800Z,5.55
2023-07-23T03:35:07.854Z,5.65
2023-07-23T03:37:37.393Z,5.93
2023-07-23T03:40:12.656Z,5.93
2023-07-23T03:42:49.261Z,6.47
2023-07-23T03:45:17.688Z,6.38
2023-07-23T03:47:46.189Z,5.70
2023-07-23T03:50:14.992Z,7.47
2023-07-23T03:52:42.637Z,6.82
2023-07-23T03:55:11.634Z,6.65
2023-07-23T03:57:40.214Z,6.55
2023-07-23T04:00:12.952Z,6.30
2023-07-23T04:02:40.618Z,5.97
2023-07-23T04:05:12.603Z,7.35
2023-07-23T04:07:52.976Z,7.05
2023-07-23T04:10:43.838Z,7.90
2023-07-23T04:13:11.440Z,7.35
2023-07-23T04:15:39.016Z,6.38
2023-07-23T04:18:13.872Z,7.60
2023-07-23T04:20:42.812Z,6.88
2023-07-23T04:23:10.473Z,6.97
2023-07-23T04:25:39.244Z,7.10
2023-07-23T04:28:15.755Z,7.80
2023-07-23T04:31:17.181Z,8.13
2023-07-23T04:33:47.846Z,8.60
2023-07-23T04:36:17.734Z,8.90
2023-07-23T04:38:47.340Z,8.40
2023-07-23T04:41:16.111Z,9.68
2023-07-23T04:43:43.804Z,11.40
2023-07-23T04:46:13.671Z,16.42
2023-07-23T04:48:41.559Z,16.30
2023-07-23T04:51:10.712Z,16.33
2023-07-23T04:53:38.397Z,15.25
2023-07-23T04:56:06.631Z,14.32
2023-07-23T04:58:42.383Z,13.57
2023-07-23T05:01:16.503Z,12.63
2023-07-23T05:03:50.886Z,10.02
2023-07-23T05:06:18.584Z,9.88
2023-07-23T05:08:46.478Z,9.73
2023-07-23T05:11:14.129Z,9.75
2023-07-23T05:13:43.061Z,9.18
2023-07-23T05:16:11.393Z,10.38
2023-07-23T05:18:39.425Z,9.30
2023-07-23T05:21:06.933Z,10.07
2023-07-23T05:23:34.398Z,9.10
2023-07-23T05:26:02.005Z,9.57
2023-07-23T05:28:29.963Z,9.45
2023-07-23T05:31:01.128Z,8.73
2023-07-23T05:33:29.388Z,10.25
2023-07-23T05:35:58.552Z,10.20
2023-07-23T05:38:35.067Z,10.20
2023-07-23T05:41:04.891Z,9.70
2023-07-23T05:43:32.486Z,10.45
2023-07-23T05:46:01.603Z,10.65
2023-07-23T05:48:29.207Z,9.73
2023-07-23T05:50:56.974Z,10.02
2023-07-23T05:53:25.998Z,9.93
2023-07-23T05:55:53.717Z,9.88
2023-07-23T05:58:22.410Z,10.55
2023-07-23T06:00:50.341Z,9.88
2023-07-23T06:03:18.189Z,9.77
2023-07-23T06:05:46.422Z,10.40
2023-07-23T06:08:14.410Z,10.02
2023-07-23T06:10:46.924Z,10.30
2023-07-23T06:13:14.548Z,11.05
2023-07-23T06:15:45.602Z,13.60
2023-07-23T06:18:13.200Z,12.50
2023-07-23T06:20:41.356Z,12.70
2023-07-23T06:23:13.295Z,14.27
2023-07-23T06:25:42.249Z,14.45
2023-07-23T06:29:22.086Z,15.88
2023-07-23T06:32:34.255Z,15.77
2023-07-23T06:35:12.191Z,16.35
2023-07-23T06:38:12.472Z,15.45
2023-07-23T06:41:46.382Z,15.93
2023-07-23T06:44:46.822Z,14.45
2023-07-23T06:47:21.590Z,15.50
2023-07-23T06:49:59.168Z,14.07
2023-07-23T06:53:02.036Z,13.75
2023-07-23T06:56:37.558Z,15.65
2023-07-23T06:59:13.826Z,14.90
2023-07-23T07:02:13.557Z,14.45
2023-07-23T07:04:41.383Z,14.05
2023-07-23T07:07:15.317Z,13.85
2023-07-23T07:09:43.539Z,12.18
2023-07-23T07:12:11.743Z,11.65
2023-07-23T07:14:41.294Z,11.77
2023-07-23T07:17:09.644Z,10.38
2023-07-23T07:19:54.896Z,11.35
2023-07-23T07:22:26.876Z,10.40
2023-07-23T07:24:54.699Z,10.20
2023-07-23T07:27:24.960Z,9.68
2023-07-23T07:30:00.920Z,9.77
2023-07-23T07:32:29.304Z,9.60
2023-07-23T07:35:05.992Z,9.13
2023-07-23T07:38:17.120Z,8.80
2023-07-23T07:40:44.617Z,8.63
2023-07-23T07:43:13.632Z,9.25
2023-07-23T07:50:21.675Z,9.68
2023-07-23T07:52:49.397Z,8.85
2023-07-23T07:55:28.046Z,10.57
2023-07-23T07:58:00.164Z,9.73
2023-07-23T08:00:38.792Z,10.27
2023-07-23T08:04:12.379Z,10.15
2023-07-23T08:11:13.805Z,7.95
2023-07-23T08:14:14.209Z,9.40
2023-07-23T08:17:47.050Z,8.50
2023-07-23T08:20:21.998Z,8.90
2023-07-23T08:22:50.955Z,9.10
2023-07-23T08:25:19.194Z,8.60
2023-07-23T08:27:52.963Z,8.18
2023-07-23T08:30:21.535Z,8.77
2023-07-23T08:32:52.960Z,9.15
2023-07-23T08:35:24.214Z,9.40
2023-07-23T08:40:30.214Z,8.38
2023-07-23T08:42:58.829Z,9.27
2023-07-23T08:45:58.759Z,8.55
2023-07-23T08:49:06.979Z,8.55
2023-07-23T08:51:45.065Z,8.90
2023-07-23T08:54:14.896Z,8.82
2023-07-23T08:56:45.312Z,8.93
2023-07-23T08:59:14.126Z,9.27
2023-07-23T09:01:43.015Z,8.85
2023-07-23T09:04:16.501Z,8.98
2023-07-23T09:06:45.703Z,8.57
2023-07-23T09:09:14.768Z,8.55
2023-07-23T09:11:43.200Z,8.45
2023-07-23T09:14:14.191Z,8.30
2023-07-23T09:16:46.850Z,8.07
2023-07-23T09:19:35.818Z,9.10
2023-07-23T09:22:06.536Z,10.00
2023-07-23T09:24:35.036Z,9.10
2023-07-23T09:27:06.212Z,8.30
2023-07-23T09:29:38.258Z,9.02
2023-07-23T09:32:23.039Z,9.40
2023-07-23T09:34:50.668Z,8.18
2023-07-23T09:37:19.373Z,8.90
2023-07-23T09:39:46.979Z,8.13
2023-07-23T09:42:14.543Z,8.05
2023-07-23T09:44:43.163Z,8.80
2023-07-23T09:47:11.644Z,8.85
2023-07-23T09:49:39.372Z,8.30
2023-07-23T09:52:10.271Z,9.15
2023-07-23T09:54:38.364Z,7.65
2023-07-23T09:57:10.282Z,8.63
2023-07-23T09:59:38.058Z,8.98
2023-07-23T10:02:06.055Z,8.32
2023-07-23T10:04:34.288Z,8.25
2023-07-23T10:07:06.398Z,7.30
2023-07-23T10:09:35.170Z,7.88
2023-07-23T10:12:03.744Z,7.50
2023-07-23T10:14:38.765Z,7.50
2023-07-23T10:17:07.042Z,8.23
2023-07-23T10:19:42.033Z,7.43
2023-07-23T10:22:09.930Z,8.05
2023-07-23T10:24:43.299Z,8.30
2023-07-23T10:27:17.753Z,7.82
2023-07-23T10:30:22.637Z,8.00
2023-07-23T10:33:10.557Z,7.80
2023-07-23T10:36:00.334Z,7.78
2023-07-23T10:38:29.417Z,7.32
2023-07-23T10:40:57.192Z,7.80
2023-07-23T10:43:51.933Z,8.18
2023-07-23T10:46:22.065Z,8.88
2023-07-23T10:49:24.174Z,8.00
2023-07-23T10:51:54.675Z,7.45
2023-07-23T10:54:25.967Z,7.90
2023-07-23T10:56:56.814Z,7.75
2023-07-23T10:59:24.440Z,7.90
2023-07-23T11:01:53.202Z,7.25
2023-07-23T11:04:31.232Z,6.78
2023-07-23T11:07:01.457Z,7.03
2023-07-23T11:09:37.631Z,6.50
2023-07-23T11:14:38.004Z,6.78
2023-07-23T11:17:09.167Z,6.93
2023-07-23T11:20:09.752Z,6.53
2023-07-23T11:22:43.981Z,6.70
2023-07-23T11:25:19.976Z,7.60
2023-07-23T11:27:50.231Z,6.55
2023-07-23T11:30:19.034Z,6.88
2023-07-23T11:32:49.571Z,6.55
2023-07-23T11:35:17.233Z,6.13
2023-07-23T11:37:50.413Z,6.95
2023-07-23T11:40:27.163Z,6.03
2023-07-23T11:43:06.394Z,6.43
2023-07-23T11:45:46.661Z,6.07
2023-07-23T11:48:19.279Z,6.55
2023-07-23T11:50:48.255Z,6.20
2023-07-23T11:53:18.020Z,5.85
2023-07-23T11:55:49.066Z,6.70
2023-07-23T11:58:19.561Z,6.43
2023-07-23T12:00:50.710Z,5.70
2023-07-23T12:03:19.740Z,5.28
2023-07-23T12:05:48.099Z,4.80
2023-07-23T12:08:39.973Z,4.72
2023-07-23T12:11:15.940Z,4.57
2023-07-23T12:13:51.273Z,4.80
2023-07-23T12:16:38.984Z,4.60
2023-07-23T12:19:08.366Z,5.00
2023-07-23T12:21:45.587Z,4.80
2023-07-23T12:24:18.000Z,4.20
2023-07-23T12:26:51.074Z,4.53
2023-07-23T12:29:19.521Z,4.30
2023-07-23T12:32:08.907Z,3.58
2023-07-23T12:34:47.266Z,4.40
2023-07-23T12:37:21.968Z,3.97
2023-07-23T12:39:49.509Z,3.47
2023-07-23T12:42:48.705Z,3.20
2023-07-23T12:45:23.943Z,3.33
2023-07-23T12:47:58.008Z,3.78
2023-07-23T12:50:26.489Z,3.17
2023-07-23T12:52:55.966Z,2.75
2023-07-23T12:55:23.763Z,2.40
2023-07-23T12:57:53.340Z,2.67
2023-07-23T13:00:23.618Z,2.60
2023-07-23T13:02:51.533Z,3.00
2023-07-23T13:05:21.320Z,2.35
2023-07-23T13:07:49.070Z,2.60
2023-07-23T13:10:16.672Z,2.40
2023-07-23T13:12:44.934Z,2.60
2023-07-23T13:15:14.364Z,2.42
2023-07-23T13:18:19.489Z,2.20
2023-07-23T13:20:47.269Z,2.40
2023-07-23T13:23:48.881Z,2.10
2023-07-23T13:26:19.886Z,2.08
2023-07-23T13:28:54.032Z,2.20
2023-07-23T13:31:25.251Z,2.00
2023-07-23T13:33:52.870Z,2.08
2023-07-23T13:38:04.335Z,1.92
2023-07-23T13:40:33.285Z,1.77
2023-07-23T13:43:09.150Z,2.20
2023-07-23T13:49:13.440Z,1.85
2023-07-23T13:56:45.600Z,1.90
2023-07-23T14:03:51.122Z,2.58
2023-07-23T14:06:25.093Z,1.70
2023-07-23T14:09:25.993Z,2.00
2023-07-23T14:12:01.109Z,2.05
2023-07-23T14:24:11.792Z,1.73
2023-07-23T14:31:53.689Z,1.50
2023-07-23T14:48:05.894Z,1.70
2023-07-23T14:55:06.154Z,1.60
2023-07-23T14:57:34.091Z,1.63
2023-07-23T15:05:37.921Z,1.70
2023-07-23T15:08:12.163Z,1.50
2023-07-23T15:12:15.539Z,1.30
2023-07-23T15:15:23.909Z,1.52
2023-07-23T15:19:34.440Z,1.35
2023-07-23T15:22:08.556Z,1.50
2023-07-23T15:24:36.653Z,1.15
2023-07-23T15:27:04.984Z,1.65
2023-07-23T15:29:35.769Z,1.50
2023-07-23T15:32:04.597Z,1.67
2023-07-23T15:34:41.228Z,1.75
2023-07-23T15:37:08.769Z,1.50
2023-07-23T15:39:36.375Z,1.80
2023-07-23T15:42:04.557Z,1.65
2023-07-23T15:44:34.111Z,1.70
2023-07-23T15:47:01.648Z,1.70
2023-07-23T15:49:31.035Z,1.60
2023-07-23T15:51:58.503Z,1.20
2023-07-23T15:54:26.056Z,1.30
2023-07-23T15:56:53.891Z,1.38
2023-07-23T15:59:23.138Z,1.65
2023-07-23T16:01:52.651Z,1.48
2023-07-23T16:04:23.273Z,1.52
2023-07-23T16:06:52.298Z,1.30
2023-07-23T16:09:24.770Z,1.52
2023-07-23T16:11:56.216Z,1.70
2023-07-23T16:14:58.788Z,2.22
2023-07-23T16:17:28.831Z,2.33
2023-07-23T16:20:30.820Z,1.77
2023-07-23T16:23:32.742Z,1.70
2023-07-23T16:26:41.910Z,1.60
2023-07-23T16:29:11.638Z,1.65
2023-07-23T16:31:42.498Z,1.55
2023-07-23T16:34:11.350Z,1.73
2023-07-23T16:36:41.919Z,1.52
2023-07-23T16:39:11.101Z,2.08
2023-07-23T16:41:42.212Z,1.80
2023-07-23T16:44:12.038Z,1.77
2023-07-23T16:46:40.451Z,1.60
2023-07-23T16:49:41.554Z,1.77
2023-07-23T16:52:17.530Z,1.60
2023-07-23T16:54:45.201Z,1.33
2023-07-23T16:57:12.975Z,1.33
2023-07-23T16:59:45.058Z,1.75
2023-07-23T17:02:14.715Z,1.45
2023-07-23T17:05:15.819Z,1.40
2023-07-23T17:07:46.692Z,1.60
2023-07-23T17:10:15.267Z,1.70
2023-07-23T17:12:46.267Z,1.75
2023-07-23T17:15:17.429Z,1.60
2023-07-23T17:17:47.464Z,1.88
2023-07-23T17:20:15.371Z,1.40
2023-07-23T17:22:42.895Z,2.03
2023-07-23T17:25:11.248Z,1.70
2023-07-23T17:27:38.930Z,1.33
2023-07-23T17:30:08.898Z,1.90
2023-07-23T17:32:43.580Z,1.73
2023-07-23T17:35:12.159Z,1.40
2023-07-23T17:37:42.427Z,1.58
2023-07-23T17:40:16.288Z,1.55
2023-07-23T17:42:43.862Z,1.83
2023-07-23T17:45:15.564Z,1.60
2023-07-23T17:47:43.334Z,2.10
2023-07-23T17:50:16.690Z,1.70
2023-07-23T17:53:18.837Z,1.80
2023-07-23T17:55:51.262Z,2.00
2023-07-23T17:58:19.437Z,1.73
2023-07-23T18:00:48.473Z,1.80
2023-07-23T18:03:16.406Z,1.80
2023-07-23T18:05:50.384Z,1.67
2023-07-23T18:08:17.934Z,1.80
2023-07-23T18:10:47.464Z,2.47
2023-07-23T18:13:15.301Z,2.55
2023-07-23T18:15:44.348Z,2.30
2023-07-23T18:18:11.852Z,2.78
2023-07-23T18:21:13.952Z,2.00
2023-07-23T18:23:41.829Z,1.90
2023-07-23T18:26:09.812Z,3.65
2023-07-23T18:28:42.710Z,2.20
2023-07-23T18:33:53.875Z,2.20
2023-07-23T18:36:21.973Z,2.50
2023-07-23T18:38:50.787Z,2.30
2023-07-23T18:41:18.370Z,3.30
2023-07-23T18:43:52.646Z,2.17
2023-07-23T18:46:20.282Z,2.70
2023-07-23T18:49:20.323Z,2.97
2023-07-23T18:51:50.396Z,2.17
2023-07-23T18:54:21.188Z,2.33
2023-07-23T18:56:50.694Z,2.70
2023-07-23T18:59:21.357Z,2.97
2023-07-23T19:01:55.060Z,2.33
2023-07-23T19:04:22.879Z,2.47
2023-07-23T19:07:04.908Z,2.33
2023-07-23T19:09:39.623Z,2.63
2023-07-23T19:12:13.409Z,3.38
2023-07-23T19:14:48.133Z,3.25
2023-07-23T19:17:19.418Z,3.08
2023-07-23T19:20:53.518Z,2.40
2023-07-23T19:23:29.588Z,3.15
2023-07-23T19:29:07.552Z,3.38
2023-07-23T19:31:35.458Z,2.70
2023-07-23T19:34:03.007Z,3.67
2023-07-23T19:36:33.318Z,4.38
2023-07-23T19:39:01.516Z,3.20
2023-07-23T19:41:29.931Z,2.85
2023-07-23T19:44:00.826Z,3.22
2023-07-23T19:46:30.234Z,4.47
2023-07-23T19:49:02.367Z,3.58
2023-07-23T19:51:31.393Z,4.45
2023-07-23T19:53:59.029Z,3.70
2023-07-23T19:56:28.084Z,4.03
2023-07-23T19:58:56.753Z,4.93
2023-07-23T20:01:24.400Z,4.60
2023-07-23T20:03:52.269Z,4.65
2023-07-23T20:06:21.208Z,5.30
2023-07-23T20:08:49.987Z,4.93
2023-07-23T20:11:21.586Z,6.32
2023-07-23T20:13:52.611Z,6.20
2023-07-23T20:16:20.673Z,5.72
2023-07-23T20:18:51.092Z,6.22
2023-07-23T20:21:29.246Z,5.97
2023-07-23T20:24:16.432Z,6.90
2023-07-23T20:26:44.602Z,6.97
2023-07-23T20:29:20.875Z,6.68
2023-07-23T20:31:49.441Z,6.72
2023-07-23T20:34:17.321Z,5.35
2023-07-23T20:36:47.214Z,5.15
2023-07-23T20:39:15.764Z,5.75
2023-07-23T20:41:44.770Z,5.03
2023-07-23T20:44:12.580Z,4.82
2023-07-23T20:46:42.996Z,5.32
2023-07-23T20:49:10.914Z,5.53
2023-07-23T20:51:38.651Z,5.60
2023-07-23T20:54:06.319Z,4.90
2023-07-23T20:56:33.885Z,5.60
2023-07-23T20:59:01.925Z,5.10
2023-07-23T21:01:29.588Z,5.03
2023-07-23T21:03:57.227Z,5.10
2023-07-23T21:06:25.048Z,5.50
2023-07-23T21:08:53.636Z,5.18
2023-07-23T21:11:21.328Z,4.80
2023-07-23T21:13:50.547Z,4.78
2023-07-23T21:16:18.534Z,4.68
2023-07-23T21:18:47.560Z,5.43
2023-07-23T21:21:15.050Z,4.93
2023-07-23T21:23:42.619Z,4.75
2023-07-23T21:26:10.973Z,4.38
2023-07-23T21:28:39.825Z,5.32
2023-07-23T21:31:11.026Z,4.53
2023-07-23T21:33:40.246Z,4.45
2023-07-23T21:36:08.176Z,4.05
2023-07-23T21:38:37.578Z,4.13
2023-07-23T21:41:05.218Z,4.18
2023-07-23T21:43:33.009Z,4.40
2023-07-23T21:46:01.121Z,4.82
2023-07-23T21:48:29.812Z,4.47
2023-07-23T21:50:57.459Z,4.85
2023-07-23T21:53:25.120Z,4.43
2023-07-23T21:55:52.873Z,4.28
2023-07-23T21:58:20.519Z,4.50
2023-07-23T22:00:49.642Z,4.50
2023-07-23T22:03:18.382Z,4.25
2023-07-23T22:05:47.012Z,4.70
2023-07-23T22:08:15.447Z,4.80
2023-07-23T22:10:43.074Z,4.47
2023-07-23T22:13:12.453Z,4.85
2023-07-23T22:15:40.501Z,4.75
2023-07-23T22:18:08.095Z,4.55
2023-07-23T22:20:37.119Z,4.50
2023-07-23T22:23:05.525Z,4.72
2023-07-23T22:25:33.171Z,4.10
2023-07-23T22:28:02.237Z,4.80
2023-07-23T22:30:31.976Z,4.60
2023-07-23T22:33:01.395Z,4.50
2023-07-23T22:35:30.169Z,4.50
2023-07-23T22:37:59.856Z,4.53
2023-07-23T22:40:28.668Z,4.18
2023-07-23T22:43:04.784Z,4.55
2023-07-23T22:45:34.030Z,4.55
2023-07-23T22:48:01.712Z,4.78
2023-07-23T22:50:30.899Z,4.72
2023-07-23T22:52:58.861Z,4.68
2023-07-23T22:55:28.503Z,5.07
2023-07-23T22:57:56.804Z,4.80
2023-07-23T23:00:26.093Z,5.40
2023-07-23T23:02:54.108Z,4.75
2023-07-23T23:05:24.351Z,4.40
2023-07-23T23:07:52.035Z,4.55
2023-07-23T23:10:20.989Z,4.93
2023-07-23T23:12:48.509Z,4.65
2023-07-23T23:15:16.820Z,4.75
2023-07-23T23:17:45.335Z,5.00
2023-07-23T23:20:13.388Z,4.60
2023-07-23T23:22:42.003Z,4.93
2023-07-23T23:25:09.826Z,4.38
2023-07-23T23:27:37.546Z,4.75
2023-07-23T23:30:06.228Z,5.40
2023-07-23T23:32:35.823Z,5.13
2023-07-23T23:35:03.601Z,5.55
2023-07-23T23:37:31.465Z,4.75
2023-07-23T23:39:59.016Z,5.30
2023-07-23T23:42:26.708Z,5.55
2023-07-23T23:44:54.688Z,5.45
2023-07-23T23:47:22.197Z,6.25
2023-07-23T23:49:49.848Z,6.18
2023-07-23T23:52:17.689Z,6.15
2023-07-23T23:54:45.312Z,5.90
2023-07-23T23:57:12.997Z,6.07
2023-07-23T23:59:40.527Z,6.00
